Terminal Aerodrome Forecast
Issued by NWS

Home | Current Version | Previous Version | Graphics & Text | Print | Product List | Glossary On
Versions: 1 2 3 4 5 6 7 8 9 10 11 12
000
FTUS43 KGRB 182327
TAFCWA
TAF
KCWA 182327Z 1900/1924 24007KT P6SM BKN250
     FM191700 21008G15KT P6SM BKN200
     FM192100 22011G16KT P6SM BKN200 WS018/26035KT
      AMD LTD TO CLD VIS AND WIND 1904/1912=

USA.gov is the U.S. government's official web portal to all federal, state and local government web resources and services.